createdAt,value
2019-03-30T00:00:12.616Z,7.9
2019-03-30T00:01:14.307Z,7.9
2019-03-30T00:02:15.687Z,7.9
2019-03-30T00:03:17.347Z,7.9
2019-03-30T00:04:19.040Z,7.9
2019-03-30T00:05:20.726Z,7.9
2019-03-30T00:06:22.246Z,7.9
2019-03-30T00:07:23.758Z,7.9
2019-03-30T00:08:25.424Z,7.9
2019-03-30T00:09:27.075Z,7.9
2019-03-30T00:10:28.737Z,7.9
2019-03-30T00:11:30.240Z,7.9
2019-03-30T00:12:31.757Z,7.9
2019-03-30T00:13:33.460Z,7.9
2019-03-30T00:14:34.999Z,7.9
2019-03-30T00:15:36.358Z,7.9
2019-03-30T00:16:38.060Z,7.9
2019-03-30T00:17:39.579Z,7.9
2019-03-30T00:18:43.096Z,7.9
2019-03-30T00:19:44.757Z,7.9
2019-03-30T00:20:46.473Z,7.8
2019-03-30T00:21:48.451Z,7.8
2019-03-30T00:22:49.964Z,7.8
2019-03-30T00:23:51.609Z,7.8
2019-03-30T00:24:53.285Z,7.8
2019-03-30T00:25:55.181Z,7.8
2019-03-30T00:26:56.362Z,7.8
2019-03-30T00:27:57.866Z,7.8
2019-03-30T00:28:59.383Z,7.9
2019-03-30T00:30:01.306Z,7.9
2019-03-30T00:31:03.017Z,7.9
2019-03-30T00:32:04.545Z,7.9
2019-03-30T00:33:05.895Z,7.8
2019-03-30T00:34:07.417Z,7.8
2019-03-30T00:35:09.073Z,7.8
2019-03-30T00:36:10.432Z,7.8
2019-03-30T00:37:12.178Z,7.8
2019-03-30T00:38:13.694Z,7.8
2019-03-30T00:39:15.358Z,7.8
2019-03-30T00:40:17.105Z,7.7
2019-03-30T00:41:18.476Z,7.7
2019-03-30T00:42:19.843Z,7.7
2019-03-30T00:43:21.507Z,7.7
2019-03-30T00:44:23.207Z,7.7
2019-03-30T00:45:24.796Z,7.7
2019-03-30T00:46:26.408Z,7.7
2019-03-30T00:47:28.068Z,7.7
2019-03-30T00:48:29.590Z,7.7
2019-03-30T00:49:31.239Z,7.7
2019-03-30T00:50:32.575Z,7.7
2019-03-30T00:51:34.095Z,7.6
2019-03-30T00:52:35.775Z,7.6
2019-03-30T00:53:37.286Z,7.6
2019-03-30T00:54:38.958Z,7.6
2019-03-30T00:55:40.621Z,7.5
2019-03-30T00:56:42.337Z,7.5
2019-03-30T00:57:44.001Z,7.5
2019-03-30T00:58:45.566Z,7.5
2019-03-30T00:59:47.589Z,7.5
2019-03-30T01:00:49.279Z,7.5
2019-03-30T01:01:50.954Z,7.6
2019-03-30T01:02:52.467Z,7.6
2019-03-30T01:03:54.143Z,7.6
2019-03-30T01:04:55.670Z,7.6
2019-03-30T01:05:59.706Z,7.6
2019-03-30T01:07:01.372Z,7.6
2019-03-30T01:08:03.046Z,7.6
2019-03-30T01:09:04.714Z,7.6
2019-03-30T01:10:06.053Z,7.6
2019-03-30T01:11:07.724Z,7.6
2019-03-30T01:12:09.257Z,7.5
2019-03-30T01:13:10.695Z,7.5
2019-03-30T01:14:12.188Z,7.5
2019-03-30T01:15:13.685Z,7.5
2019-03-30T01:16:15.347Z,7.5
2019-03-30T01:17:16.854Z,7.5
2019-03-30T01:18:18.368Z,7.5
2019-03-30T01:19:19.695Z,7.4
2019-03-30T01:20:21.377Z,7.4
2019-03-30T01:21:23.044Z,7.4
2019-03-30T01:22:24.575Z,7.4
2019-03-30T01:23:26.259Z,7.4
2019-03-30T01:24:27.625Z,7.4
2019-03-30T01:25:29.316Z,7.4
2019-03-30T01:26:30.995Z,7.4
2019-03-30T01:27:32.015Z,7.5
2019-03-30T01:28:33.521Z,7.5
2019-03-30T01:29:34.868Z,7.5
2019-03-30T01:30:36.216Z,7.5
2019-03-30T01:31:37.730Z,7.5
2019-03-30T01:32:39.398Z,7.5
2019-03-30T01:33:40.752Z,7.5
2019-03-30T01:34:42.430Z,7.5
2019-03-30T01:35:44.106Z,7.5
2019-03-30T01:36:45.805Z,7.5
2019-03-30T01:37:47.846Z,7.5
2019-03-30T01:38:49.346Z,7.4
2019-03-30T01:39:51.017Z,7.4
2019-03-30T01:40:52.535Z,7.5
2019-03-30T01:41:54.029Z,7.5
2019-03-30T01:42:55.533Z,7.5
2019-03-30T01:43:56.856Z,7.6
2019-03-30T01:44:58.360Z,7.6
2019-03-30T01:46:00.024Z,7.7
2019-03-30T01:47:01.348Z,7.7
2019-03-30T01:48:02.859Z,7.7
2019-03-30T01:49:04.504Z,7.7
2019-03-30T01:50:19.558Z,7.7
2019-03-30T01:51:21.213Z,7.7
2019-03-30T01:52:22.706Z,7.7
2019-03-30T01:53:24.377Z,7.7
2019-03-30T01:54:26.067Z,7.7
2019-03-30T01:55:27.743Z,7.7
2019-03-30T01:56:29.243Z,7.7
2019-03-30T01:57:30.907Z,7.7
2019-03-30T01:58:32.579Z,7.7
2019-03-30T01:59:34.080Z,7.8
2019-03-30T02:00:35.464Z,7.8
2019-03-30T02:01:36.956Z,7.9
2019-03-30T02:02:38.456Z,7.9
2019-03-30T02:03:40.142Z,7.9
2019-03-30T02:04:41.824Z,7.8
2019-03-30T02:05:43.495Z,7.8
2019-03-30T02:06:45.166Z,7.8
2019-03-30T02:07:46.836Z,7.7
2019-03-30T02:08:48.346Z,7.6
2019-03-30T02:09:49.872Z,7.4
2019-03-30T02:10:51.547Z,7.3
2019-03-30T02:11:53.207Z,7.1
2019-03-30T02:12:54.702Z,7.1
2019-03-30T02:13:56.215Z,7.1
2019-03-30T02:14:57.913Z,7.1
2019-03-30T02:15:59.586Z,7.1
2019-03-30T02:17:01.262Z,7.1
2019-03-30T02:18:02.928Z,7.1
2019-03-30T02:19:04.446Z,7.2
2019-03-30T02:20:06.097Z,7.1
2019-03-30T02:21:07.595Z,7.2
2019-03-30T02:22:09.255Z,7.2
2019-03-30T02:23:10.856Z,7.2
2019-03-30T02:24:12.358Z,7.2
2019-03-30T02:25:14.026Z,7.2
2019-03-30T02:26:15.525Z,7.1
2019-03-30T02:27:17.033Z,7.1
2019-03-30T02:28:18.696Z,7.1
2019-03-30T02:29:20.214Z,7.1
2019-03-30T02:30:21.916Z,7.2
2019-03-30T02:31:23.605Z,7.1
2019-03-30T02:32:25.293Z,7.2
2019-03-30T02:33:26.978Z,7.2
2019-03-30T02:34:28.673Z,7.2
2019-03-30T02:35:30.181Z,7.2
2019-03-30T02:36:31.696Z,7.2
2019-03-30T02:37:33.385Z,7.2
2019-03-30T02:38:35.047Z,7.2
2019-03-30T02:39:36.569Z,7.2
2019-03-30T02:40:38.283Z,7.2
2019-03-30T02:41:39.965Z,7.2
2019-03-30T02:42:41.442Z,7.2
2019-03-30T02:43:42.950Z,7.2
2019-03-30T02:44:44.684Z,7.1
2019-03-30T02:45:46.435Z,7.2
2019-03-30T02:46:47.957Z,7.2
2019-03-30T02:47:49.644Z,7.2
2019-03-30T02:48:51.185Z,7.2
2019-03-30T02:49:52.692Z,7.2
2019-03-30T02:50:54.053Z,7.2
2019-03-30T02:51:55.580Z,7.2
2019-03-30T02:52:57.032Z,7.2
2019-03-30T02:53:58.823Z,7.2
2019-03-30T02:55:00.774Z,7.2
2019-03-30T02:56:02.324Z,7.2
2019-03-30T02:57:03.856Z,7.2
2019-03-30T02:58:05.560Z,7.2
2019-03-30T02:59:06.905Z,7.2
2019-03-30T03:00:08.415Z,7.2
2019-03-30T03:01:10.104Z,7.2
2019-03-30T03:02:11.431Z,7.2
2019-03-30T03:03:12.957Z,7.2
2019-03-30T03:04:14.648Z,7.2
2019-03-30T03:05:16.169Z,7.2
2019-03-30T03:06:17.846Z,7.2
2019-03-30T03:07:19.562Z,7.2
2019-03-30T03:08:20.935Z,7.2
2019-03-30T03:09:22.647Z,7.2
2019-03-30T03:10:24.341Z,7.2
2019-03-30T03:11:26.030Z,7.2
2019-03-30T03:12:27.754Z,7.2
2019-03-30T03:13:29.444Z,7.2
2019-03-30T03:14:30.985Z,7.2
2019-03-30T03:15:32.710Z,7.2
2019-03-30T03:16:34.399Z,7.2
2019-03-30T03:17:36.127Z,7.2
2019-03-30T03:18:37.810Z,7.2
2019-03-30T03:19:39.514Z,7.2
2019-03-30T03:20:41.174Z,7.2
2019-03-30T03:21:42.693Z,7.2
2019-03-30T03:22:44.233Z,7.3
2019-03-30T03:23:45.908Z,7.3
2019-03-30T03:24:47.424Z,7.4
2019-03-30T03:25:49.124Z,7.4
2019-03-30T03:26:50.822Z,7.4
2019-03-30T03:27:52.384Z,7.4
2019-03-30T03:28:53.587Z,7.4
2019-03-30T03:29:55.091Z,7.4
2019-03-30T03:30:56.675Z,7.4
2019-03-30T03:31:58.392Z,7.4
2019-03-30T03:33:00.161Z,7.4
2019-03-30T03:34:02.000Z,7.4
2019-03-30T03:35:03.876Z,7.4
2019-03-30T03:36:05.615Z,7.4
2019-03-30T03:37:07.396Z,7.4
2019-03-30T03:38:09.102Z,7.4
2019-03-30T03:39:10.637Z,7.4
2019-03-30T03:40:12.281Z,7.4
2019-03-30T03:41:13.989Z,7.4
2019-03-30T03:42:15.697Z,7.5
2019-03-30T03:43:17.252Z,7.5
2019-03-30T03:44:19.065Z,7.6
2019-03-30T03:45:20.753Z,7.7
2019-03-30T03:46:22.279Z,7.7
2019-03-30T03:47:23.825Z,7.8
2019-03-30T03:48:25.524Z,7.8
2019-03-30T03:49:27.071Z,7.8
2019-03-30T03:50:28.617Z,7.8
2019-03-30T03:51:30.320Z,7.8
2019-03-30T03:52:32.002Z,7.8
2019-03-30T03:53:33.625Z,7.8
2019-03-30T03:54:35.291Z,7.8
2019-03-30T03:55:36.976Z,7.8
2019-03-30T03:56:38.665Z,7.8
2019-03-30T03:57:40.388Z,7.8
2019-03-30T03:58:42.123Z,7.9
2019-03-30T03:59:43.505Z,7.9
2019-03-30T04:00:45.240Z,7.9
2019-03-30T04:01:46.942Z,7.9
2019-03-30T04:02:48.581Z,7.9
2019-03-30T04:03:50.133Z,7.9
2019-03-30T04:04:51.875Z,7.9
2019-03-30T04:05:53.551Z,7.9
2019-03-30T04:06:55.295Z,7.9
2019-03-30T04:07:56.645Z,7.8
2019-03-30T04:08:58.379Z,7.8
2019-03-30T04:10:00.134Z,7.8
2019-03-30T04:11:02.053Z,7.8
2019-03-30T04:12:03.695Z,7.8
2019-03-30T04:13:08.848Z,7.8
2019-03-30T04:14:10.351Z,7.9
2019-03-30T04:15:11.689Z,7.9
2019-03-30T04:16:13.257Z,7.9
2019-03-30T04:17:14.975Z,7.9
2019-03-30T04:18:16.705Z,7.9
2019-03-30T04:19:18.394Z,7.9
2019-03-30T04:20:19.743Z,7.8
2019-03-30T04:21:21.320Z,7.8
2019-03-30T04:22:23.023Z,7.8
2019-03-30T04:23:24.524Z,7.8
2019-03-30T04:24:26.285Z,7.8
2019-03-30T04:25:27.835Z,7.8
2019-03-30T04:26:29.515Z,7.8
2019-03-30T04:27:31.188Z,7.8
2019-03-30T04:28:32.848Z,7.8
2019-03-30T04:29:34.044Z,7.8
2019-03-30T04:30:35.739Z,7.8
2019-03-30T04:31:37.457Z,7.8
2019-03-30T04:32:39.079Z,7.8
2019-03-30T04:33:40.847Z,7.8
2019-03-30T04:34:42.519Z,7.8
2019-03-30T04:35:44.217Z,7.8
2019-03-30T04:36:45.734Z,7.8
2019-03-30T04:37:47.254Z,7.8
2019-03-30T04:38:48.952Z,7.8
2019-03-30T04:39:50.454Z,7.8
2019-03-30T04:40:51.954Z,7.8
2019-03-30T04:41:53.463Z,7.7
2019-03-30T04:42:55.164Z,7.7
2019-03-30T04:43:56.924Z,7.7
2019-03-30T04:44:58.647Z,7.7
2019-03-30T04:46:00.323Z,7.7
2019-03-30T04:47:02.045Z,7.7
2019-03-30T04:48:03.850Z,7.7
2019-03-30T04:49:05.381Z,7.7
2019-03-30T04:50:07.304Z,7.7
2019-03-30T04:51:08.856Z,7.7
2019-03-30T04:52:10.025Z,7.7
2019-03-30T04:53:11.746Z,7.7
2019-03-30T04:54:13.102Z,7.6
2019-03-30T04:55:14.435Z,7.6
2019-03-30T04:56:16.189Z,7.6
2019-03-30T04:57:17.854Z,7.5
2019-03-30T04:58:19.349Z,7.5
2019-03-30T04:59:20.703Z,7.5
2019-03-30T05:00:22.216Z,7.6
2019-03-30T05:01:23.785Z,7.6
2019-03-30T05:02:25.311Z,7.6
2019-03-30T05:03:26.987Z,7.7
2019-03-30T05:04:28.546Z,7.7
2019-03-30T05:05:30.249Z,7.8
2019-03-30T05:06:31.946Z,7.8
2019-03-30T05:07:33.454Z,7.8
2019-03-30T05:08:35.159Z,7.8
2019-03-30T05:09:36.830Z,7.8
2019-03-30T05:10:38.328Z,7.8
2019-03-30T05:11:39.979Z,7.8
2019-03-30T05:12:41.680Z,7.8
2019-03-30T05:13:43.020Z,7.8
2019-03-30T05:14:44.523Z,7.8
2019-03-30T05:15:46.201Z,7.8
2019-03-30T05:16:47.875Z,7.8
2019-03-30T05:17:49.854Z,7.8
2019-03-30T05:18:51.344Z,7.8
2019-03-30T05:19:52.916Z,7.8
2019-03-30T05:20:54.590Z,7.8
2019-03-30T05:21:56.273Z,7.8
2019-03-30T05:22:57.934Z,7.8
2019-03-30T05:23:59.683Z,7.7
2019-03-30T05:25:01.633Z,7.7
2019-03-30T05:26:03.322Z,7.7
2019-03-30T05:27:04.843Z,7.6
2019-03-30T05:28:06.514Z,7.6
2019-03-30T05:29:07.854Z,7.6
2019-03-30T05:30:09.526Z,7.6
2019-03-30T05:31:11.211Z,7.6
2019-03-30T05:32:12.874Z,7.6
2019-03-30T05:33:14.554Z,7.7
2019-03-30T05:34:16.222Z,7.7
2019-03-30T05:35:17.883Z,7.7
2019-03-30T05:36:19.227Z,7.7
2019-03-30T05:37:20.727Z,7.8
2019-03-30T05:38:22.435Z,7.8
2019-03-30T05:39:24.124Z,7.7
2019-03-30T05:40:25.685Z,7.7
2019-03-30T05:41:27.193Z,7.7
2019-03-30T05:42:28.849Z,7.7
2019-03-30T05:43:30.218Z,7.7
2019-03-30T05:44:31.901Z,7.7
2019-03-30T05:45:33.617Z,7.8
2019-03-30T05:46:35.289Z,7.8
2019-03-30T05:47:36.875Z,7.8
2019-03-30T05:48:38.542Z,7.8
2019-03-30T05:49:40.268Z,7.8
2019-03-30T05:50:41.953Z,7.8
2019-03-30T05:51:43.457Z,7.8
2019-03-30T05:52:45.195Z,7.8
2019-03-30T05:53:46.703Z,7.3
2019-03-30T05:54:48.044Z,7.3
2019-03-30T05:55:49.559Z,7.4
2019-03-30T05:56:51.063Z,7.4
2019-03-30T05:57:52.747Z,7.5
2019-03-30T05:58:54.413Z,7.5
2019-03-30T05:59:57.525Z,7.6
2019-03-30T06:00:58.735Z,7.6
2019-03-30T06:02:00.411Z,7.6
2019-03-30T06:03:02.107Z,7.6
2019-03-30T06:04:03.624Z,7.5
2019-03-30T06:05:05.511Z,7.5
2019-03-30T06:06:07.008Z,7.5
2019-03-30T06:07:08.698Z,7.4
2019-03-30T06:08:10.238Z,7.4
2019-03-30T06:09:11.681Z,7.4
2019-03-30T06:10:13.350Z,7.4
2019-03-30T06:11:15.003Z,7.4
2019-03-30T06:12:16.694Z,7.4
2019-03-30T06:13:18.406Z,7.3
2019-03-30T06:14:19.736Z,7.3
2019-03-30T06:15:21.379Z,7.3
2019-03-30T06:16:22.724Z,7.3
2019-03-30T06:17:24.062Z,7.3
2019-03-30T06:18:25.416Z,7.2
2019-03-30T06:19:27.095Z,7.2
2019-03-30T06:20:28.497Z,7.2
2019-03-30T06:21:30.256Z,7.2
2019-03-30T06:22:42.254Z,7.2
2019-03-30T06:23:43.934Z,7.2
2019-03-30T06:24:45.603Z,7.2
2019-03-30T06:25:47.104Z,7.1
2019-03-30T06:26:48.452Z,7.1
2019-03-30T06:27:49.953Z,7.1
2019-03-30T06:28:51.622Z,7.1
2019-03-30T06:29:53.391Z,7.1
2019-03-30T06:30:55.055Z,7.1
2019-03-30T06:31:56.477Z,7.1
2019-03-30T06:32:58.193Z,7.1
2019-03-30T06:33:59.875Z,7.1
2019-03-30T06:35:01.620Z,7.1
2019-03-30T06:36:03.115Z,7.1
2019-03-30T06:37:04.789Z,7.1
2019-03-30T06:38:06.131Z,7.1
2019-03-30T06:39:07.807Z,7.1
2019-03-30T06:40:09.594Z,7.1
2019-03-30T06:41:11.150Z,7.1
2019-03-30T06:42:12.661Z,7.1
2019-03-30T06:43:14.378Z,7.1
2019-03-30T06:44:16.034Z,7.1
2019-03-30T06:45:17.396Z,7.1
2019-03-30T06:46:18.911Z,7.2
2019-03-30T06:47:20.390Z,7.1
2019-03-30T06:48:21.904Z,7.1
2019-03-30T06:49:23.571Z,7.2
2019-03-30T06:50:25.253Z,7.2
2019-03-30T06:51:26.896Z,7.2
2019-03-30T06:52:28.590Z,7.2
2019-03-30T06:53:30.296Z,7.2
2019-03-30T06:54:32.033Z,7.2
2019-03-30T06:55:33.710Z,7.2
2019-03-30T06:56:35.413Z,7.2
2019-03-30T06:57:37.099Z,7.2
2019-03-30T06:58:38.796Z,7.3
2019-03-30T06:59:40.475Z,7.3
2019-03-30T07:00:41.979Z,7.4
2019-03-30T07:01:43.679Z,7.5
2019-03-30T07:02:45.169Z,7.5
2019-03-30T07:03:46.684Z,7.6
2019-03-30T07:04:48.176Z,7.7
2019-03-30T07:05:49.865Z,7.7
2019-03-30T07:06:51.553Z,7.8
2019-03-30T07:07:53.051Z,7.8
2019-03-30T07:08:54.591Z,7.9
2019-03-30T07:09:55.941Z,7.9
2019-03-30T07:10:57.264Z,7.9
2019-03-30T07:11:58.945Z,7.9
2019-03-30T07:13:00.483Z,7.9
2019-03-30T07:14:02.249Z,7.9
2019-03-30T07:15:03.977Z,7.9
2019-03-30T07:16:05.500Z,7.9
2019-03-30T07:17:07.200Z,7.9
2019-03-30T07:18:08.871Z,7.8
2019-03-30T07:19:10.527Z,7.8
2019-03-30T07:20:12.033Z,7.8
2019-03-30T07:21:13.549Z,7.8
2019-03-30T07:22:15.235Z,7.8
2019-03-30T07:23:16.765Z,7.8
2019-03-30T07:24:18.283Z,7.9
2019-03-30T07:25:19.965Z,7.2
2019-03-30T07:26:21.703Z,7.3
2019-03-30T07:27:23.272Z,7.3
2019-03-30T07:28:24.793Z,7.3
2019-03-30T07:29:26.481Z,7.4
2019-03-30T07:30:28.013Z,7.4
2019-03-30T07:31:29.369Z,7.5
2019-03-30T07:32:30.869Z,7.7
2019-03-30T07:33:32.553Z,7.9
2019-03-30T07:34:34.084Z,7.9
2019-03-30T07:35:35.769Z,7.9
2019-03-30T07:36:37.315Z,7.9
2019-03-30T07:37:39.011Z,7.9
2019-03-30T07:38:40.527Z,7.9
2019-03-30T07:39:42.264Z,7.9
2019-03-30T07:40:43.815Z,7.9
2019-03-30T07:41:45.585Z,7.9
2019-03-30T07:42:47.337Z,7.9
2019-03-30T07:43:49.011Z,7.9
2019-03-30T07:44:50.518Z,7.8
2019-03-30T07:45:52.190Z,7.8
2019-03-30T07:46:53.699Z,7.8
2019-03-30T07:47:55.215Z,7.7
2019-03-30T07:48:56.900Z,7.7
2019-03-30T07:49:58.607Z,7.6
2019-03-30T07:51:00.276Z,7.6
2019-03-30T07:52:01.895Z,7.5
2019-03-30T07:53:03.425Z,7.5
2019-03-30T07:54:05.106Z,7.5
2019-03-30T07:55:06.791Z,7.5
2019-03-30T07:56:10.249Z,7.5
2019-03-30T07:57:18.875Z,7.4
2019-03-30T07:58:20.622Z,7.4
2019-03-30T07:59:22.322Z,7.4
2019-03-30T08:00:31.370Z,7.3
2019-03-30T08:01:33.065Z,7.3
2019-03-30T08:02:34.746Z,7.2
2019-03-30T08:03:36.425Z,7.2
2019-03-30T08:04:38.114Z,7.2
2019-03-30T08:05:39.815Z,7.2
2019-03-30T08:06:41.509Z,7.2
2019-03-30T08:07:43.197Z,7.2
2019-03-30T08:08:44.973Z,7.3
2019-03-30T08:09:46.687Z,7.3
2019-03-30T08:10:48.410Z,7.3
2019-03-30T08:11:50.038Z,7.4
2019-03-30T08:13:01.184Z,7.4
2019-03-30T08:14:02.903Z,7.4
2019-03-30T08:15:04.595Z,7.5
2019-03-30T08:16:06.116Z,7.5
2019-03-30T08:17:07.904Z,7.5
2019-03-30T08:18:09.442Z,7.4
2019-03-30T08:19:11.151Z,7.4
2019-03-30T08:20:12.370Z,7.4
2019-03-30T08:21:13.874Z,7.4
2019-03-30T08:22:15.560Z,7.3
2019-03-30T08:23:17.081Z,7.3
2019-03-30T08:24:18.954Z,7.3
2019-03-30T08:25:20.742Z,7.3
2019-03-30T08:26:22.466Z,7.4
2019-03-30T08:27:23.977Z,7.4
2019-03-30T08:28:25.526Z,7.4
2019-03-30T08:29:27.235Z,7.4
2019-03-30T08:30:28.732Z,7.5
2019-03-30T08:31:30.082Z,7.5
2019-03-30T08:32:31.613Z,7.5
2019-03-30T08:33:33.273Z,7.5
2019-03-30T08:34:34.972Z,7.5
2019-03-30T08:35:36.718Z,7.5
2019-03-30T08:36:38.431Z,7.6
2019-03-30T08:37:40.112Z,7.6
2019-03-30T08:38:41.628Z,7.5
2019-03-30T08:39:42.996Z,7.5
2019-03-30T08:40:44.685Z,7.5
2019-03-30T08:41:46.375Z,7.5
2019-03-30T08:42:48.019Z,7.5
2019-03-30T08:43:49.688Z,7.5
2019-03-30T08:44:51.265Z,7.6
2019-03-30T08:45:52.785Z,7.6
2019-03-30T08:46:54.289Z,7.6
2019-03-30T08:47:55.965Z,7.6
2019-03-30T08:48:57.470Z,7.7
2019-03-30T08:49:59.164Z,7.7
2019-03-30T08:51:00.835Z,7.7
2019-03-30T08:52:02.383Z,7.7
2019-03-30T08:53:04.055Z,7.7
2019-03-30T08:54:05.734Z,7.6
2019-03-30T08:55:07.409Z,7.5
2019-03-30T08:56:09.176Z,7.5
2019-03-30T08:57:10.868Z,7.4
2019-03-30T08:58:12.383Z,7.3
2019-03-30T08:59:13.916Z,7.2
2019-03-30T09:00:15.286Z,7.2
2019-03-30T09:01:16.963Z,7.1
2019-03-30T09:02:18.725Z,7.1
2019-03-30T09:03:20.275Z,7.1
2019-03-30T09:04:21.976Z,7.1
2019-03-30T09:05:23.318Z,7.1
2019-03-30T09:06:24.994Z,7.1
2019-03-30T09:07:26.511Z,7.1
2019-03-30T09:08:27.891Z,7.1
2019-03-30T09:09:29.680Z,7.1
2019-03-30T09:10:31.561Z,7.1
2019-03-30T09:11:33.061Z,7.1
2019-03-30T09:12:34.566Z,7.1
2019-03-30T09:13:36.246Z,7.2
2019-03-30T09:14:37.921Z,7.1
2019-03-30T09:15:39.450Z,7.1
2019-03-30T09:16:41.228Z,7.1
2019-03-30T09:17:42.911Z,7.1
2019-03-30T09:18:44.432Z,7.1
2019-03-30T09:19:45.995Z,7.1
2019-03-30T09:20:47.616Z,7.1
2019-03-30T09:21:49.536Z,7.1
2019-03-30T09:22:51.151Z,7.1
2019-03-30T09:23:52.684Z,7.1
2019-03-30T09:24:54.208Z,7.1
2019-03-30T09:25:55.982Z,7.1
2019-03-30T09:26:57.566Z,7.1
2019-03-30T09:27:59.265Z,7.2
2019-03-30T09:29:00.975Z,7.1
2019-03-30T09:30:02.796Z,7.1
2019-03-30T09:31:04.503Z,7.1
2019-03-30T09:32:16.445Z,7.1
2019-03-30T09:33:18.136Z,7.1
2019-03-30T09:34:19.818Z,7.1
2019-03-30T09:35:21.353Z,7.1
2019-03-30T09:36:23.157Z,7.2
2019-03-30T09:37:24.878Z,7.2
2019-03-30T09:38:26.565Z,7.2
2019-03-30T09:39:27.954Z,7.1
2019-03-30T09:40:29.524Z,7.2
2019-03-30T09:41:31.046Z,7.2
2019-03-30T09:42:32.714Z,7.2
2019-03-30T09:43:37.902Z,7.2
2019-03-30T09:44:39.504Z,7.2
2019-03-30T09:45:41.037Z,7.2
2019-03-30T09:46:42.565Z,7.2
2019-03-30T09:47:44.225Z,7.2
2019-03-30T09:48:45.773Z,7.3
2019-03-30T09:49:47.325Z,7.3
2019-03-30T09:50:48.679Z,7.3
2019-03-30T09:51:50.190Z,7.4
2019-03-30T09:52:51.874Z,7.5
2019-03-30T09:53:53.551Z,7.6
2019-03-30T09:54:55.229Z,7.7
2019-03-30T09:55:56.935Z,7.8
2019-03-30T09:56:58.636Z,7.9
2019-03-30T09:58:00.156Z,7.9
2019-03-30T09:59:01.689Z,7.9
2019-03-30T10:00:03.240Z,7.3
2019-03-30T10:01:04.637Z,7.5
2019-03-30T10:02:06.190Z,7.6
2019-03-30T10:03:07.903Z,7.7
2019-03-30T10:04:09.584Z,7.8
2019-03-30T10:05:11.286Z,7.9
2019-03-30T10:06:12.815Z,7.9
2019-03-30T10:07:14.505Z,7.9
2019-03-30T10:08:16.195Z,7.9
2019-03-30T10:09:17.725Z,7.9
2019-03-30T10:10:19.275Z,7.9
2019-03-30T10:11:20.808Z,7.9
2019-03-30T10:12:22.340Z,7.9
2019-03-30T10:13:23.737Z,7.9
2019-03-30T10:14:25.267Z,7.9
2019-03-30T10:15:26.959Z,7.9
2019-03-30T10:16:28.453Z,7.9
2019-03-30T10:17:30.009Z,7.9
2019-03-30T10:18:31.529Z,7.9
2019-03-30T10:19:33.228Z,7.9
2019-03-30T10:20:34.756Z,7.9
2019-03-30T10:21:36.437Z,7.9
2019-03-30T10:22:37.961Z,7.9
2019-03-30T10:23:39.697Z,7.9
2019-03-30T10:24:41.216Z,7.9
2019-03-30T10:25:42.735Z,7.9
2019-03-30T10:26:44.405Z,7.9
2019-03-30T10:27:46.219Z,7.9
2019-03-30T10:28:48.799Z,7.9
2019-03-30T10:29:50.425Z,7.2
2019-03-30T10:30:52.215Z,7.3
2019-03-30T10:31:53.560Z,7.5
2019-03-30T10:32:55.091Z,7.6
2019-03-30T10:33:56.612Z,7.7
2019-03-30T10:34:57.965Z,7.8
2019-03-30T10:36:01.840Z,7.9
2019-03-30T10:37:05.919Z,7.9
2019-03-30T10:38:10.112Z,7.9
2019-03-30T10:39:11.634Z,7.9
2019-03-30T10:40:13.325Z,7.9
2019-03-30T10:41:14.874Z,7.9
2019-03-30T10:42:16.420Z,7.9
2019-03-30T10:43:18.067Z,7.9
2019-03-30T10:44:19.618Z,7.9
2019-03-30T10:45:21.320Z,7.9
2019-03-30T10:46:23.085Z,7.9
2019-03-30T10:47:24.825Z,7.2
2019-03-30T10:48:26.355Z,7.3
2019-03-30T10:49:27.719Z,7.4
2019-03-30T10:50:29.243Z,7.5
2019-03-30T10:51:30.958Z,7.6
2019-03-30T10:52:44.211Z,7.7
2019-03-30T10:54:00.189Z,7.8
2019-03-30T10:55:17.673Z,7.9
2019-03-30T10:56:35.136Z,7.9
2019-03-30T10:57:52.629Z,7.9
2019-03-30T10:59:02.588Z,7.9
2019-03-30T11:00:04.297Z,7.9
2019-03-30T11:01:05.972Z,7.9
2019-03-30T11:02:07.485Z,7.9
2019-03-30T11:03:09.274Z,7.9
2019-03-30T11:04:22.804Z,7.9
2019-03-30T11:05:40.366Z,7.9
2019-03-30T11:06:55.789Z,7.9
2019-03-30T11:08:00.262Z,7.9
2019-03-30T11:09:01.953Z,7.9
2019-03-30T11:10:03.677Z,7.9
2019-03-30T11:11:05.365Z,7.9
2019-03-30T11:12:07.129Z,7.9
2019-03-30T11:13:08.848Z,7.9
2019-03-30T11:14:10.403Z,7.9
2019-03-30T11:15:12.097Z,7.9
2019-03-30T11:16:13.777Z,7.9
2019-03-30T11:17:15.469Z,7.9
2019-03-30T11:18:17.145Z,7.9
2019-03-30T11:19:18.690Z,7.9
2019-03-30T11:20:20.374Z,7.9
2019-03-30T11:21:22.133Z,7.9
2019-03-30T11:22:23.812Z,7.8
2019-03-30T11:23:25.318Z,7.8
2019-03-30T11:24:26.832Z,7.8
2019-03-30T11:25:28.607Z,7.8
2019-03-30T11:26:30.299Z,7.8
2019-03-30T11:27:32.059Z,7.9
2019-03-30T11:28:33.754Z,7.9
2019-03-30T11:29:35.282Z,7.9
2019-03-30T11:30:37.015Z,7.9
2019-03-30T11:31:38.716Z,7.9
2019-03-30T11:32:40.415Z,7.9
2019-03-30T11:33:42.092Z,7.9
2019-03-30T11:34:43.870Z,7.9
2019-03-30T11:35:45.388Z,7.9
2019-03-30T11:36:47.104Z,7.9
2019-03-30T11:37:48.775Z,7.9
2019-03-30T11:38:50.473Z,7.9
2019-03-30T11:39:52.166Z,7.9
2019-03-30T11:40:53.654Z,7.9
2019-03-30T11:41:55.317Z,7.9
2019-03-30T11:42:56.859Z,7.9
2019-03-30T11:43:58.544Z,7.9
2019-03-30T11:44:59.562Z,7.9
2019-03-30T11:46:01.237Z,7.9
2019-03-30T11:47:02.837Z,7.9
2019-03-30T11:48:04.340Z,7.9
2019-03-30T11:49:06.022Z,7.9
2019-03-30T11:50:07.692Z,7.9
2019-03-30T11:51:09.200Z,7.9
2019-03-30T11:52:10.869Z,7.9
2019-03-30T11:53:12.390Z,7.9
2019-03-30T11:54:14.164Z,7.9
2019-03-30T11:55:23.913Z,7.9
2019-03-30T11:56:25.592Z,7.9
2019-03-30T11:57:27.270Z,7.9
2019-03-30T11:58:28.903Z,7.9
2019-03-30T11:59:30.607Z,7.9
2019-03-30T12:00:32.278Z,7.9
2019-03-30T12:01:33.972Z,7.9
2019-03-30T12:02:35.507Z,7.9
2019-03-30T12:03:37.044Z,7.9
2019-03-30T12:04:38.713Z,7.9
2019-03-30T12:05:40.418Z,7.9
2019-03-30T12:06:41.924Z,7.9
2019-03-30T12:07:43.428Z,7.9
2019-03-30T12:08:44.947Z,7.9
2019-03-30T12:09:46.304Z,7.9
2019-03-30T12:10:47.807Z,7.9
2019-03-30T12:11:49.350Z,7.9
2019-03-30T12:12:51.083Z,7.9
2019-03-30T12:13:52.618Z,7.9
2019-03-30T12:14:54.324Z,7.9
2019-03-30T12:15:55.868Z,7.9
2019-03-30T12:16:57.564Z,7.9
2019-03-30T12:17:59.234Z,7.9
2019-03-30T12:19:00.724Z,7.9
2019-03-30T12:20:02.414Z,7.8
2019-03-30T12:21:04.102Z,7.8
2019-03-30T12:22:05.871Z,7.8
2019-03-30T12:23:07.566Z,7.8
2019-03-30T12:24:09.284Z,7.8
2019-03-30T12:25:10.811Z,7.8
2019-03-30T12:26:12.511Z,7.8
2019-03-30T12:27:14.023Z,7.9
2019-03-30T12:28:15.415Z,7.9
2019-03-30T12:29:16.961Z,7.9
2019-03-30T12:30:18.725Z,7.9
2019-03-30T12:31:20.234Z,7.9
2019-03-30T12:32:21.906Z,7.9
2019-03-30T12:33:23.598Z,7.9
2019-03-30T12:34:25.304Z,7.9
2019-03-30T12:35:26.804Z,7.9
2019-03-30T12:36:28.489Z,7.8
2019-03-30T12:37:30.162Z,7.8
2019-03-30T12:38:31.692Z,7.8
2019-03-30T12:39:33.190Z,7.8
2019-03-30T12:40:34.768Z,7.8
2019-03-30T12:41:36.347Z,7.8
2019-03-30T12:42:37.901Z,7.8
2019-03-30T12:43:40.712Z,7.7
2019-03-30T12:44:42.128Z,7.7
2019-03-30T12:45:43.677Z,7.7
2019-03-30T12:46:45.247Z,7.6
2019-03-30T12:47:46.839Z,7.6
2019-03-30T12:48:48.221Z,7.6
2019-03-30T12:49:49.301Z,7.6
2019-03-30T12:50:50.865Z,7.6
2019-03-30T12:51:52.406Z,7.6
2019-03-30T12:52:53.961Z,7.7
2019-03-30T12:53:55.407Z,7.8
2019-03-30T12:54:56.943Z,7.8
2019-03-30T12:55:58.470Z,7.8
2019-03-30T12:56:59.864Z,7.8
2019-03-30T12:58:01.087Z,7.8
2019-03-30T12:59:02.328Z,7.7
2019-03-30T13:00:03.917Z,7.6
2019-03-30T13:01:05.304Z,7.5
2019-03-30T13:02:06.877Z,7.3
2019-03-30T13:03:08.429Z,7.2
2019-03-30T13:04:09.838Z,7.1
2019-03-30T13:05:11.399Z,7.1
2019-03-30T13:06:12.951Z,7.1
2019-03-30T13:07:14.502Z,7.1
2019-03-30T13:08:15.885Z,7.1
2019-03-30T13:09:17.367Z,7.1
2019-03-30T13:10:18.920Z,7.1
2019-03-30T13:11:20.224Z,7.1
2019-03-30T13:12:21.798Z,7.1
2019-03-30T13:13:23.359Z,7.1
2019-03-30T13:14:24.909Z,7.1
2019-03-30T13:15:26.515Z,7.1
2019-03-30T13:16:28.098Z,7.1
2019-03-30T13:17:29.638Z,7.1
2019-03-30T13:18:31.171Z,7.1
2019-03-30T13:19:32.894Z,7.1
2019-03-30T13:20:34.477Z,7.1
2019-03-30T13:21:36.063Z,7.1
2019-03-30T13:22:37.620Z,7.1
2019-03-30T13:23:39.035Z,7.2
2019-03-30T13:24:40.581Z,7.1
2019-03-30T13:25:41.967Z,7.1
2019-03-30T13:26:43.517Z,7.1
2019-03-30T13:27:45.045Z,7.1
2019-03-30T13:28:46.576Z,7.1
2019-03-30T13:29:48.117Z,7.1
2019-03-30T13:30:49.701Z,7.1
2019-03-30T13:31:51.104Z,7.1
2019-03-30T13:32:55.059Z,7.1
2019-03-30T13:33:56.459Z,7.2
2019-03-30T13:34:58.007Z,7.1
2019-03-30T13:35:59.668Z,7.1
2019-03-30T13:37:01.233Z,7.1
2019-03-30T13:38:02.802Z,7.1
2019-03-30T13:39:04.349Z,7.2
2019-03-30T13:40:05.738Z,7.2
2019-03-30T13:41:07.280Z,7.2
2019-03-30T13:42:08.849Z,7.2
2019-03-30T13:43:10.371Z,7.2
2019-03-30T13:44:11.614Z,7.2
2019-03-30T13:45:13.162Z,7.2
2019-03-30T13:46:14.718Z,7.2
2019-03-30T13:47:16.115Z,7.2
2019-03-30T13:48:17.597Z,7.2
2019-03-30T13:49:18.980Z,7.2
2019-03-30T13:50:20.542Z,7.3
2019-03-30T13:51:22.109Z,7.3
2019-03-30T13:52:23.651Z,7.3
2019-03-30T13:53:25.207Z,7.4
2019-03-30T13:54:26.772Z,7.4
2019-03-30T13:55:28.330Z,7.5
2019-03-30T13:56:29.886Z,7.5
2019-03-30T13:57:31.122Z,7.6
2019-03-30T13:58:32.532Z,7.6
2019-03-30T13:59:34.065Z,7.6
2019-03-30T14:00:35.609Z,7.7
2019-03-30T14:01:37.165Z,7.7
2019-03-30T14:02:38.729Z,7.7
2019-03-30T14:03:40.297Z,7.8
2019-03-30T14:04:41.936Z,7.8
2019-03-30T14:05:43.534Z,7.8
2019-03-30T14:06:45.078Z,7.9
2019-03-30T14:07:46.643Z,7.9
2019-03-30T14:08:48.059Z,7.9
2019-03-30T14:09:49.708Z,7.9
2019-03-30T14:10:51.292Z,7.9
2019-03-30T14:11:52.829Z,7.9